Coplay, PA

9:36 PM EDT on October 21, 2014 (GMT -0400)
Pottstown Limerick | Change Station
CLOSE
Current Station
Airport
Location: Pottstown,
Elevation: 308 ft
Nearby Weather Stations

Elev 308 ft 40.24 °N, 75.55 °W | Updated 42 minutes ago

Mostly Cloudy
Mostly Cloudy
58 °F
Feels Like 58 °F
N
5
Wind Variable Wind from NNE

Today
High -- | Low -- °F
--% Chance of Precip.
Yesterday
High -- | Low -- °F
Precip. -- in
7:19 AM 6:12 PM
Waning Crescent, 3% visible
Pressure 29.88 in
Visibility 10.0 miles
Clouds Mostly Cloudy 6000 ft
Overcast 9000 ft
Dew Point 48 °F
Humidity 70%
Rainfall 0.02 in
Snow Depth Not available.
UV 0 out of 12
Pollen .30 out of 12
Ozone Good
PM2.5 Good
Flu Activity Sporadic
METAR KPTW 220054Z AUTO 03004KT 10SM BKN060 OVC090 14/09 A2988 RMK AO2 SLP117 T01440089

More Conditions Fewer Conditions

Pressure 29.88 in
Visibility 10.0 miles
Clouds Mostly Cloudy 6000 ft
Overcast 9000 ft
Dew Point 48 °F
Humidity 70%
Rainfall 0.02 in
Snow Depth Not available.
UV 0 out of 12
Pollen .30 out of 12
Ozone Good
PM2.5 Good
Flu Activity Sporadic
METAR KPTW 220054Z AUTO 03004KT 10SM BKN060 OVC090 14/09 A2988 RMK AO2 SLP117 T01440089

More Conditions Fewer Conditions

10-Day Weather Forecast

Almanac

Astronomy

Oct. 21, 2014 Rise Set
Actual Time 7:19 AM EDT 6:12 PM EDT
Civil Twilight 6:51 AM EDT 6:40 PM EDT
Nautical Twilight 6:20 AM EDT 7:12 PM EDT
Astronomical Twilight 5:48 AM EDT 7:44 PM EDT
Moon 5:01 AM EDT (10/21) 5:06 PM EDT (10/21)
Length of Visible Light 11h 48m
Length of Day
10h 53m
Tomorrow will be 2m 32s shorter.
Waning Crescent, 3% of the Moon is Illuminated
Today
Waning Crescent
Oct 23
New
Oct 30
First Quarter
Nov 6
Full
Nov 14
Last Quarter

Today's Extremes

State Highs State Lows

Community

WunderPhotos

Upload Photos

1,763,844 photos uploaded!

Nearby

Air Quality

  Air Quality AQ Index Pollutant
Yesterday Good
PM2.5
Yesterday Good
OZONE
Current Good
PM2.5
Current Good
OZONE
Tuesday Moderate
PM2.5
Wednesday Good
PM2.5
Thursday Good
PM2.5

Snow Depth

Station Depth Elevation
No new snow has been reported.

Earthquake Activity

City Distance Mag. Time & Date
No recent earthquake activity has been reported nearby.
Minimum magnitude displayed is 2.5.

Coastal Water Temperatures

Place Temperature
No Stations Reporting

Nearby Weather Stations